sensor_id;sensor_type;location;lat;lon;timestamp;pressure;altitude;pressure_sealevel;temperature;humidity
33845;BME280;20145;43.118;25.694;2023-12-20T00:01:36;99787.31;;;2.08;91.92
33845;BME280;20145;43.118;25.694;2023-12-20T00:04:02;99787.16;;;2.01;92.17
33845;BME280;20145;43.118;25.694;2023-12-20T00:06:29;99789.53;;;1.95;92.02
33845;BME280;20145;43.118;25.694;2023-12-20T00:08:55;99787.06;;;1.98;92.43
33845;BME280;20145;43.118;25.694;2023-12-20T00:11:20;99770.72;;;1.90;92.62
33845;BME280;20145;43.118;25.694;2023-12-20T00:13:46;99778.47;;;1.95;93.08
33845;BME280;20145;43.118;25.694;2023-12-20T00:16:12;99755.13;;;1.78;92.64
33845;BME280;20145;43.118;25.694;2023-12-20T00:18:37;99756.88;;;1.81;93.71
33845;BME280;20145;43.118;25.694;2023-12-20T00:21:03;99766.28;;;1.83;93.31
33845;BME280;20145;43.118;25.694;2023-12-20T00:23:29;99763.91;;;1.89;93.85
33845;BME280;20145;43.118;25.694;2023-12-20T00:25:55;99743.94;;;1.73;93.76
33845;BME280;20145;43.118;25.694;2023-12-20T00:28:21;99774.09;;;1.89;92.88
33845;BME280;20145;43.118;25.694;2023-12-20T00:30:46;99764.63;;;1.85;92.83
33845;BME280;20145;43.118;25.694;2023-12-20T00:33:12;99757.84;;;1.86;93.43
33845;BME280;20145;43.118;25.694;2023-12-20T00:35:38;99742.41;;;1.78;93.52
33845;BME280;20145;43.118;25.694;2023-12-20T00:38:03;99768.91;;;1.86;93.20
33845;BME280;20145;43.118;25.694;2023-12-20T00:40:30;99748.97;;;1.71;93.57
33845;BME280;20145;43.118;25.694;2023-12-20T00:42:56;99757.06;;;1.87;93.83
33845;BME280;20145;43.118;25.694;2023-12-20T00:45:21;99752.59;;;1.79;93.31
33845;BME280;20145;43.118;25.694;2023-12-20T00:47:47;99735.25;;;1.66;92.16
33845;BME280;20145;43.118;25.694;2023-12-20T00:50:13;99756.50;;;1.68;92.65
33845;BME280;20145;43.118;25.694;2023-12-20T00:52:38;99728.97;;;1.53;92.65
33845;BME280;20145;43.118;25.694;2023-12-20T00:55:05;99690.06;;;1.27;92.68
33845;BME280;20145;43.118;25.694;2023-12-20T00:57:31;99738.38;;;1.56;93.27
33845;BME280;20145;43.118;25.694;2023-12-20T00:59:57;99709.94;;;1.41;93.76
33845;BME280;20145;43.118;25.694;2023-12-20T01:02:22;99725.50;;;1.50;93.09
33845;BME280;20145;43.118;25.694;2023-12-20T01:04:48;99731.34;;;1.47;93.46
33845;BME280;20145;43.118;25.694;2023-12-20T01:07:14;99721.09;;;1.44;92.51
33845;BME280;20145;43.118;25.694;2023-12-20T01:09:39;99719.31;;;1.42;93.07
33845;BME280;20145;43.118;25.694;2023-12-20T01:12:05;99711.69;;;1.42;92.68
33845;BME280;20145;43.118;25.694;2023-12-20T01:14:31;99715.03;;;1.41;92.70
33845;BME280;20145;43.118;25.694;2023-12-20T01:16:57;99704.63;;;1.33;92.30
33845;BME280;20145;43.118;25.694;2023-12-20T01:19:22;99703.84;;;1.36;92.85
33845;BME280;20145;43.118;25.694;2023-12-20T01:21:50;99703.16;;;1.40;93.48
33845;BME280;20145;43.118;25.694;2023-12-20T01:24:15;99697.16;;;1.38;94.09
33845;BME280;20145;43.118;25.694;2023-12-20T01:26:41;99675.69;;;1.28;94.08
33845;BME280;20145;43.118;25.694;2023-12-20T01:29:07;99690.34;;;1.37;93.47
33845;BME280;20145;43.118;25.694;2023-12-20T01:31:33;99684.41;;;1.36;93.79
33845;BME280;20145;43.118;25.694;2023-12-20T01:33:58;99692.06;;;1.38;93.90
33845;BME280;20145;43.118;25.694;2023-12-20T01:36:24;99674.88;;;1.29;93.80
33845;BME280;20145;43.118;25.694;2023-12-20T01:38:50;99678.56;;;1.39;94.51
33845;BME280;20145;43.118;25.694;2023-12-20T01:41:15;99670.13;;;1.41;94.51
33845;BME280;20145;43.118;25.694;2023-12-20T01:43:41;99659.19;;;1.44;93.79
33845;BME280;20145;43.118;25.694;2023-12-20T01:46:07;99646.38;;;1.39;93.83
33845;BME280;20145;43.118;25.694;2023-12-20T01:48:33;99645.75;;;1.48;93.95
33845;BME280;20145;43.118;25.694;2023-12-20T01:50:59;99647.53;;;1.50;94.32
33845;BME280;20145;43.118;25.694;2023-12-20T01:53:27;99631.31;;;1.47;93.76
33845;BME280;20145;43.118;25.694;2023-12-20T01:55:55;99638.16;;;1.49;94.49
33845;BME280;20145;43.118;25.694;2023-12-20T01:58:22;99635.63;;;1.49;94.35
33845;BME280;20145;43.118;25.694;2023-12-20T02:00:48;99628.97;;;1.53;94.93
33845;BME280;20145;43.118;25.694;2023-12-20T02:03:14;99617.66;;;1.43;94.85
33845;BME280;20145;43.118;25.694;2023-12-20T02:05:41;99616.09;;;1.48;95.20
33845;BME280;20145;43.118;25.694;2023-12-20T02:08:07;99592.06;;;1.37;94.91
33845;BME280;20145;43.118;25.694;2023-12-20T02:10:32;99609.41;;;1.50;94.30
33845;BME280;20145;43.118;25.694;2023-12-20T02:12:58;99609.50;;;1.55;94.61
33845;BME280;20145;43.118;25.694;2023-12-20T02:15:24;99599.34;;;1.55;94.94
33845;BME280;20145;43.118;25.694;2023-12-20T02:17:50;99597.69;;;1.55;94.61
33845;BME280;20145;43.118;25.694;2023-12-20T02:20:16;99578.84;;;1.49;95.04
33845;BME280;20145;43.118;25.694;2023-12-20T02:22:42;99608.09;;;1.66;94.91
33845;BME280;20145;43.118;25.694;2023-12-20T02:25:07;99591.75;;;1.56;94.15
33845;BME280;20145;43.118;25.694;2023-12-20T02:27:34;99587.25;;;1.46;93.03
33845;BME280;20145;43.118;25.694;2023-12-20T02:30:00;99590.75;;;1.50;92.51
33845;BME280;20145;43.118;25.694;2023-12-20T02:32:26;99590.63;;;1.47;93.40
33845;BME280;20145;43.118;25.694;2023-12-20T02:34:52;99580.31;;;1.41;93.07
33845;BME280;20145;43.118;25.694;2023-12-20T02:37:17;99592.22;;;1.42;93.54
33845;BME280;20145;43.118;25.694;2023-12-20T02:39:43;99576.78;;;1.36;93.31
33845;BME280;20145;43.118;25.694;2023-12-20T02:42:10;99549.25;;;1.19;93.36
33845;BME280;20145;43.118;25.694;2023-12-20T02:44:35;99547.47;;;1.17;93.58
33845;BME280;20145;43.118;25.694;2023-12-20T02:47:02;99544.97;;;1.18;92.81
33845;BME280;20145;43.118;25.694;2023-12-20T02:49:28;99563.75;;;1.23;92.90
33845;BME280;20145;43.118;25.694;2023-12-20T02:51:53;99556.75;;;1.16;93.92
33845;BME280;20145;43.118;25.694;2023-12-20T02:54:19;99556.75;;;1.16;94.10
33845;BME280;20145;43.118;25.694;2023-12-20T02:56:44;99549.09;;;1.15;95.24
33845;BME280;20145;43.118;25.694;2023-12-20T02:59:10;99544.56;;;1.03;94.95
33845;BME280;20145;43.118;25.694;2023-12-20T03:01:41;99522.25;;;0.94;96.34
33845;BME280;20145;43.118;25.694;2023-12-20T03:04:07;99555.91;;;1.16;96.24
33845;BME280;20145;43.118;25.694;2023-12-20T03:06:33;99553.19;;;1.09;96.76
33845;BME280;20145;43.118;25.694;2023-12-20T03:08:58;99541.03;;;0.99;96.46
33845;BME280;20145;43.118;25.694;2023-12-20T03:11:27;99547.66;;;0.94;95.57
33845;BME280;20145;43.118;25.694;2023-12-20T03:13:53;99539.16;;;0.92;95.93
33845;BME280;20145;43.118;25.694;2023-12-20T03:16:18;99521.09;;;0.83;94.94
33845;BME280;20145;43.118;25.694;2023-12-20T03:18:44;99540.94;;;0.95;95.77
33845;BME280;20145;43.118;25.694;2023-12-20T03:21:10;99541.88;;;0.98;95.86
33845;BME280;20145;43.118;25.694;2023-12-20T03:23:35;99523.94;;;0.94;94.94
33845;BME280;20145;43.118;25.694;2023-12-20T03:26:01;99520.59;;;0.95;95.49
33845;BME280;20145;43.118;25.694;2023-12-20T03:28:27;99533.50;;;1.02;94.50
33845;BME280;20145;43.118;25.694;2023-12-20T03:30:53;99533.34;;;0.96;94.81
33845;BME280;20145;43.118;25.694;2023-12-20T03:33:19;99507.53;;;0.81;95.53
33845;BME280;20145;43.118;25.694;2023-12-20T03:35:44;99524.78;;;0.93;95.06
33845;BME280;20145;43.118;25.694;2023-12-20T03:38:10;99523.88;;;0.91;95.33
33845;BME280;20145;43.118;25.694;2023-12-20T03:40:36;99521.22;;;0.86;94.74
33845;BME280;20145;43.118;25.694;2023-12-20T03:43:01;99522.09;;;0.88;95.39
33845;BME280;20145;43.118;25.694;2023-12-20T03:45:27;99515.34;;;0.88;95.46
33845;BME280;20145;43.118;25.694;2023-12-20T03:47:53;99491.22;;;0.74;95.25
33845;BME280;20145;43.118;25.694;2023-12-20T03:50:22;99486.84;;;0.69;95.03
33845;BME280;20145;43.118;25.694;2023-12-20T03:52:48;99500.69;;;0.80;94.56
33845;BME280;20145;43.118;25.694;2023-12-20T03:55:13;99495.47;;;0.74;94.76
33845;BME280;20145;43.118;25.694;2023-12-20T03:57:39;99498.94;;;0.77;95.19
33845;BME280;20145;43.118;25.694;2023-12-20T04:00:06;99494.69;;;0.76;94.90
33845;BME280;20145;43.118;25.694;2023-12-20T04:02:39;99485.38;;;0.77;95.60
33845;BME280;20145;43.118;25.694;2023-12-20T04:05:06;99485.31;;;0.74;95.59
33845;BME280;20145;43.118;25.694;2023-12-20T04:07:32;99487.69;;;0.69;94.21
33845;BME280;20145;43.118;25.694;2023-12-20T04:09:57;99475.56;;;0.59;95.10
33845;BME280;20145;43.118;25.694;2023-12-20T04:12:23;99452.44;;;0.50;94.86
33845;BME280;20145;43.118;25.694;2023-12-20T04:14:49;99443.03;;;0.46;95.27
33845;BME280;20145;43.118;25.694;2023-12-20T04:17:15;99477.44;;;0.64;95.93
33845;BME280;20145;43.118;25.694;2023-12-20T04:19:42;99452.56;;;0.53;95.80
33845;BME280;20145;43.118;25.694;2023-12-20T04:22:07;99473.16;;;0.63;94.37
33845;BME280;20145;43.118;25.694;2023-12-20T04:24:33;99473.97;;;0.62;94.05
33845;BME280;20145;43.118;25.694;2023-12-20T04:26:59;99436.25;;;0.44;94.74
33845;BME280;20145;43.118;25.694;2023-12-20T04:29:24;99452.50;;;0.51;94.51
33845;BME280;20145;43.118;25.694;2023-12-20T04:31:51;99454.28;;;0.54;93.83
33845;BME280;20145;43.118;25.694;2023-12-20T04:34:17;99461.06;;;0.55;93.26
33845;BME280;20145;43.118;25.694;2023-12-20T04:36:43;99458.59;;;0.56;94.10
33845;BME280;20145;43.118;25.694;2023-12-20T04:39:10;99432.84;;;0.44;93.52
33845;BME280;20145;43.118;25.694;2023-12-20T04:41:35;99430.28;;;0.44;94.28
33845;BME280;20145;43.118;25.694;2023-12-20T04:44:01;99442.22;;;0.47;93.69
33845;BME280;20145;43.118;25.694;2023-12-20T04:46:27;99421.50;;;0.31;94.27
33845;BME280;20145;43.118;25.694;2023-12-20T04:48:53;99449.03;;;0.48;94.96
33845;BME280;20145;43.118;25.694;2023-12-20T04:51:19;99445.59;;;0.47;93.68
33845;BME280;20145;43.118;25.694;2023-12-20T04:53:44;99449.19;;;0.54;94.44
33845;BME280;20145;43.118;25.694;2023-12-20T04:56:10;99452.66;;;0.56;94.64
33845;BME280;20145;43.118;25.694;2023-12-20T04:58:36;99439.06;;;0.55;94.82
33845;BME280;20145;43.118;25.694;2023-12-20T05:01:01;99435.03;;;0.62;94.58
33845;BME280;20145;43.118;25.694;2023-12-20T05:03:27;99445.31;;;0.66;94.45
33845;BME280;20145;43.118;25.694;2023-12-20T05:05:53;99430.75;;;0.59;94.50
33845;BME280;20145;43.118;25.694;2023-12-20T05:08:18;99423.22;;;0.62;94.67
33845;BME280;20145;43.118;25.694;2023-12-20T05:10:45;99424.91;;;0.63;94.06
33845;BME280;20145;43.118;25.694;2023-12-20T05:13:10;99429.13;;;0.61;94.35
33845;BME280;20145;43.118;25.694;2023-12-20T05:15:36;99424.03;;;0.61;93.92
33845;BME280;20145;43.118;25.694;2023-12-20T05:18:02;99420.63;;;0.61;93.88
33845;BME280;20145;43.118;25.694;2023-12-20T05:20:27;99413.69;;;0.55;93.86
33845;BME280;20145;43.118;25.694;2023-12-20T05:22:53;99419.59;;;0.54;93.22
33845;BME280;20145;43.118;25.694;2023-12-20T05:25:19;99390.53;;;0.43;94.47
33845;BME280;20145;43.118;25.694;2023-12-20T05:27:45;99357.75;;;0.20;93.71
33845;BME280;20145;43.118;25.694;2023-12-20T05:30:11;99416.44;;;0.61;94.24
33845;BME280;20145;43.118;25.694;2023-12-20T05:32:37;99418.28;;;0.69;95.64
33845;BME280;20145;43.118;25.694;2023-12-20T05:35:03;99420.13;;;0.74;96.21
33845;BME280;20145;43.118;25.694;2023-12-20T05:37:29;99403.22;;;0.75;95.43
33845;BME280;20145;43.118;25.694;2023-12-20T05:39:55;99399.28;;;0.84;97.16
33845;BME280;20145;43.118;25.694;2023-12-20T05:42:21;99416.72;;;1.04;96.41
33845;BME280;20145;43.118;25.694;2023-12-20T05:44:46;99405.78;;;1.06;95.86
33845;BME280;20145;43.118;25.694;2023-12-20T05:47:12;99409.50;;;1.21;96.57
33845;BME280;20145;43.118;25.694;2023-12-20T05:49:37;99401.13;;;1.23;95.84
33845;BME280;20145;43.118;25.694;2023-12-20T05:52:03;99412.47;;;1.38;94.65
33845;BME280;20145;43.118;25.694;2023-12-20T05:54:29;99421.19;;;1.47;94.20
33845;BME280;20145;43.118;25.694;2023-12-20T05:56:55;99387.25;;;1.45;94.29
33845;BME280;20145;43.118;25.694;2023-12-20T05:59:20;99379.84;;;1.54;94.54
33845;BME280;20145;43.118;25.694;2023-12-20T06:01:46;99410.22;;;1.85;94.99
33845;BME280;20145;43.118;25.694;2023-12-20T06:04:12;99403.53;;;1.90;94.06
33845;BME280;20145;43.118;25.694;2023-12-20T06:06:42;99399.50;;;1.99;93.64
33845;BME280;20145;43.118;25.694;2023-12-20T06:09:08;99406.47;;;2.07;94.03
33845;BME280;20145;43.118;25.694;2023-12-20T06:11:33;99399.00;;;2.14;93.65
33845;BME280;20145;43.118;25.694;2023-12-20T06:13:59;99404.34;;;2.27;94.03
33845;BME280;20145;43.118;25.694;2023-12-20T06:16:25;99404.44;;;2.33;93.83
33845;BME280;20145;43.118;25.694;2023-12-20T06:18:50;99403.81;;;2.43;93.66
33845;BME280;20145;43.118;25.694;2023-12-20T06:21:16;99407.34;;;2.48;93.55
33845;BME280;20145;43.118;25.694;2023-12-20T06:23:42;99384.34;;;2.45;93.57
33845;BME280;20145;43.118;25.694;2023-12-20T06:26:07;99407.66;;;2.65;93.88
33845;BME280;20145;43.118;25.694;2023-12-20T06:28:33;99383.03;;;2.64;94.20
33845;BME280;20145;43.118;25.694;2023-12-20T06:30:59;99394.41;;;2.81;93.89
33845;BME280;20145;43.118;25.694;2023-12-20T06:33:26;99390.34;;;2.93;93.75
33845;BME280;20145;43.118;25.694;2023-12-20T06:35:52;99394.00;;;3.05;93.58
33845;BME280;20145;43.118;25.694;2023-12-20T06:38:18;99395.03;;;3.17;93.62
33845;BME280;20145;43.118;25.694;2023-12-20T06:40:44;99363.41;;;3.07;92.66
33845;BME280;20145;43.118;25.694;2023-12-20T06:43:12;99386.72;;;3.28;93.46
33845;BME280;20145;43.118;25.694;2023-12-20T06:45:37;99384.28;;;3.34;92.64
33845;BME280;20145;43.118;25.694;2023-12-20T06:48:03;99369.69;;;3.26;92.61
33845;BME280;20145;43.118;25.694;2023-12-20T06:50:29;99393.84;;;3.48;92.85
33845;BME280;20145;43.118;25.694;2023-12-20T06:52:55;99387.22;;;3.59;93.51
33845;BME280;20145;43.118;25.694;2023-12-20T06:55:20;99386.63;;;3.75;92.91
33845;BME280;20145;43.118;25.694;2023-12-20T06:57:46;99384.19;;;3.85;92.10
33845;BME280;20145;43.118;25.694;2023-12-20T07:00:12;99367.09;;;3.79;92.17
33845;BME280;20145;43.118;25.694;2023-12-20T07:02:38;99363.78;;;3.85;91.53
33845;BME280;20145;43.118;25.694;2023-12-20T07:05:04;99364.72;;;3.88;92.27
33845;BME280;20145;43.118;25.694;2023-12-20T07:07:30;99360.66;;;4.02;92.20
33845;BME280;20145;43.118;25.694;2023-12-20T07:09:55;99360.88;;;4.19;91.69
33845;BME280;20145;43.118;25.694;2023-12-20T07:12:21;99349.84;;;4.22;91.09
33845;BME280;20145;43.118;25.694;2023-12-20T07:14:47;99341.50;;;4.35;90.80
33845;BME280;20145;43.118;25.694;2023-12-20T07:17:13;99370.72;;;4.60;90.25
33845;BME280;20145;43.118;25.694;2023-12-20T07:19:41;99362.41;;;4.80;90.04
33845;BME280;20145;43.118;25.694;2023-12-20T07:22:07;99351.41;;;4.90;89.36
33845;BME280;20145;43.118;25.694;2023-12-20T07:24:33;99360.97;;;5.08;89.69
33845;BME280;20145;43.118;25.694;2023-12-20T07:26:59;99343.94;;;5.08;89.05
33845;BME280;20145;43.118;25.694;2023-12-20T07:29:26;99351.63;;;5.11;88.53
33845;BME280;20145;43.118;25.694;2023-12-20T07:31:52;99341.47;;;5.16;88.03
33845;BME280;20145;43.118;25.694;2023-12-20T07:34:20;99342.41;;;5.30;88.11
33845;BME280;20145;43.118;25.694;2023-12-20T07:36:46;99339.06;;;5.36;88.07
33845;BME280;20145;43.118;25.694;2023-12-20T07:39:12;99326.31;;;5.44;87.52
33845;BME280;20145;43.118;25.694;2023-12-20T07:41:38;99344.41;;;5.68;86.88
33845;BME280;20145;43.118;25.694;2023-12-20T07:44:04;99329.06;;;5.73;86.53
33845;BME280;20145;43.118;25.694;2023-12-20T07:46:30;99337.66;;;5.82;85.69
33845;BME280;20145;43.118;25.694;2023-12-20T07:48:56;99347.16;;;5.96;85.92
33845;BME280;20145;43.118;25.694;2023-12-20T07:51:22;99338.63;;;5.98;84.47
33845;BME280;20145;43.118;25.694;2023-12-20T07:53:47;99324.81;;;5.75;84.59
33845;BME280;20145;43.118;25.694;2023-12-20T07:56:18;99330.84;;;5.86;84.93
33845;BME280;20145;43.118;25.694;2023-12-20T07:58:45;99330.09;;;5.93;85.54
33845;BME280;20145;43.118;25.694;2023-12-20T08:01:11;99336.13;;;6.11;86.13
33845;BME280;20145;43.118;25.694;2023-12-20T08:03:38;99333.63;;;6.24;84.73
33845;BME280;20145;43.118;25.694;2023-12-20T08:06:03;99325.13;;;6.30;84.04
33845;BME280;20145;43.118;25.694;2023-12-20T08:08:29;99325.16;;;6.35;84.76
33845;BME280;20145;43.118;25.694;2023-12-20T08:10:55;99315.78;;;6.49;84.31
33845;BME280;20145;43.118;25.694;2023-12-20T08:13:23;99304.69;;;6.55;84.38
33845;BME280;20145;43.118;25.694;2023-12-20T08:15:54;99309.00;;;6.68;83.78
33845;BME280;20145;43.118;25.694;2023-12-20T08:18:21;99298.75;;;6.79;83.56
33845;BME280;20145;43.118;25.694;2023-12-20T08:20:47;99297.03;;;6.84;83.37
33845;BME280;20145;43.118;25.694;2023-12-20T08:23:13;99280.81;;;6.71;82.61
33845;BME280;20145;43.118;25.694;2023-12-20T08:25:39;99295.38;;;6.87;82.48
33845;BME280;20145;43.118;25.694;2023-12-20T08:28:05;99281.66;;;6.78;81.33
33845;BME280;20145;43.118;25.694;2023-12-20T08:30:32;99287.66;;;6.74;82.40
33845;BME280;20145;43.118;25.694;2023-12-20T08:33:01;99281.69;;;6.79;81.85
33845;BME280;20145;43.118;25.694;2023-12-20T08:35:27;99262.84;;;6.66;82.57
33845;BME280;20145;43.118;25.694;2023-12-20T08:37:53;99279.94;;;6.78;83.38
33845;BME280;20145;43.118;25.694;2023-12-20T08:40:19;99255.19;;;6.71;83.28
33845;BME280;20145;43.118;25.694;2023-12-20T08:42:45;99258.59;;;6.88;83.06
33845;BME280;20145;43.118;25.694;2023-12-20T08:45:11;99258.59;;;7.01;83.96
33845;BME280;20145;43.118;25.694;2023-12-20T08:47:37;99247.47;;;7.03;83.05
33845;BME280;20145;43.118;25.694;2023-12-20T08:50:03;99248.34;;;7.16;84.20
33845;BME280;20145;43.118;25.694;2023-12-20T08:52:29;99225.25;;;7.10;84.67
33845;BME280;20145;43.118;25.694;2023-12-20T08:54:55;99234.63;;;7.23;84.20
33845;BME280;20145;43.118;25.694;2023-12-20T08:57:21;99242.31;;;7.35;84.87
33845;BME280;20145;43.118;25.694;2023-12-20T08:59:49;99227.75;;;7.39;83.99
33845;BME280;20145;43.118;25.694;2023-12-20T09:02:15;99208.13;;;7.32;83.54
33845;BME280;20145;43.118;25.694;2023-12-20T09:04:41;99220.06;;;7.44;83.29
33845;BME280;20145;43.118;25.694;2023-12-20T09:07:07;99225.16;;;7.45;79.83
33845;BME280;20145;43.118;25.694;2023-12-20T09:09:33;99210.63;;;7.49;80.46
33845;BME280;20145;43.118;25.694;2023-12-20T09:11:59;99217.44;;;7.64;79.45
33845;BME280;20145;43.118;25.694;2023-12-20T09:14:25;99207.97;;;7.75;79.24
33845;BME280;20145;43.118;25.694;2023-12-20T09:16:50;99199.38;;;7.83;78.70
33845;BME280;20145;43.118;25.694;2023-12-20T09:19:19;99198.47;;;7.89;79.76
33845;BME280;20145;43.118;25.694;2023-12-20T09:21:44;99179.59;;;7.99;78.98
33845;BME280;20145;43.118;25.694;2023-12-20T09:24:10;99188.13;;;8.06;77.86
33845;BME280;20145;43.118;25.694;2023-12-20T09:26:36;99171.78;;;8.16;76.54
33845;BME280;20145;43.118;25.694;2023-12-20T09:29:03;99144.41;;;8.14;76.97
33845;BME280;20145;43.118;25.694;2023-12-20T09:31:28;99165.66;;;8.36;77.71
33845;BME280;20145;43.118;25.694;2023-12-20T09:33:54;99146.81;;;8.37;78.45
33845;BME280;20145;43.118;25.694;2023-12-20T09:36:20;99137.34;;;8.46;78.39
33845;BME280;20145;43.118;25.694;2023-12-20T09:38:45;99146.66;;;8.61;78.29
33845;BME280;20145;43.118;25.694;2023-12-20T09:41:11;99127.81;;;8.58;78.73
33845;BME280;20145;43.118;25.694;2023-12-20T09:43:37;99103.00;;;8.55;78.19
33845;BME280;20145;43.118;25.694;2023-12-20T09:46:05;99131.91;;;8.82;77.59
33845;BME280;20145;43.118;25.694;2023-12-20T09:48:32;99127.56;;;8.85;78.59
33845;BME280;20145;43.118;25.694;2023-12-20T09:50:59;99128.28;;;9.00;78.53
33845;BME280;20145;43.118;25.694;2023-12-20T09:53:25;99118.75;;;9.08;77.68
33845;BME280;20145;43.118;25.694;2023-12-20T09:55:58;99118.72;;;9.11;77.77
33845;BME280;20145;43.118;25.694;2023-12-20T09:58:24;99098.19;;;9.08;76.47
33845;BME280;20145;43.118;25.694;2023-12-20T10:00:50;99108.34;;;9.19;77.79
33845;BME280;20145;43.118;25.694;2023-12-20T10:03:17;99098.91;;;9.21;76.93
33845;BME280;20145;43.118;25.694;2023-12-20T10:05:49;99096.19;;;9.33;75.95
33845;BME280;20145;43.118;25.694;2023-12-20T10:08:17;99062.75;;;9.30;75.20
33845;BME280;20145;43.118;25.694;2023-12-20T10:10:42;99083.88;;;9.56;75.41
33845;BME280;20145;43.118;25.694;2023-12-20T10:13:12;99072.59;;;9.64;75.42
33845;BME280;20145;43.118;25.694;2023-12-20T10:15:38;99075.03;;;9.76;71.71
33845;BME280;20145;43.118;25.694;2023-12-20T10:18:05;99068.09;;;9.78;72.08
33845;BME280;20145;43.118;25.694;2023-12-20T10:20:31;99057.03;;;9.73;72.29
33845;BME280;20145;43.118;25.694;2023-12-20T10:23:00;99058.44;;;9.94;70.82
33845;BME280;20145;43.118;25.694;2023-12-20T10:25:27;99046.28;;;10.02;70.02
33845;BME280;20145;43.118;25.694;2023-12-20T10:28:25;99055.47;;;10.20;69.90
33845;BME280;20145;43.118;25.694;2023-12-20T10:30:54;99048.47;;;10.25;69.38
33845;BME280;20145;43.118;25.694;2023-12-20T10:33:30;99052.53;;;10.43;68.31
33845;BME280;20145;43.118;25.694;2023-12-20T10:35:57;99045.50;;;10.51;68.95
33845;BME280;20145;43.118;25.694;2023-12-20T10:38:23;99033.38;;;10.55;69.06
33845;BME280;20145;43.118;25.694;2023-12-20T10:40:54;99034.16;;;10.60;68.73
33845;BME280;20145;43.118;25.694;2023-12-20T10:43:20;99020.41;;;10.59;69.16
33845;BME280;20145;43.118;25.694;2023-12-20T10:45:46;99022.75;;;10.73;68.74
33845;BME280;20145;43.118;25.694;2023-12-20T10:48:12;98998.75;;;10.68;68.52
33845;BME280;20145;43.118;25.694;2023-12-20T10:50:38;99016.63;;;10.77;69.31
33845;BME280;20145;43.118;25.694;2023-12-20T10:53:04;99007.91;;;10.83;68.67
33845;BME280;20145;43.118;25.694;2023-12-20T10:55:30;98984.81;;;10.77;69.05
33845;BME280;20145;43.118;25.694;2023-12-20T10:58:01;98992.34;;;10.87;68.29
33845;BME280;20145;43.118;25.694;2023-12-20T11:00:31;98971.84;;;10.81;68.55
33845;BME280;20145;43.118;25.694;2023-12-20T11:03:00;98978.41;;;10.94;69.02
33845;BME280;20145;43.118;25.694;2023-12-20T11:05:36;98980.13;;;10.96;68.78
33845;BME280;20145;43.118;25.694;2023-12-20T11:08:10;98977.63;;;10.92;68.58
33845;BME280;20145;43.118;25.694;2023-12-20T11:10:52;98987.69;;;11.05;67.97
33845;BME280;20145;43.118;25.694;2023-12-20T11:13:53;98988.38;;;11.13;67.49
33845;BME280;20145;43.118;25.694;2023-12-20T11:16:38;98975.47;;;11.13;67.50
33845;BME280;20145;43.118;25.694;2023-12-20T11:19:07;98960.13;;;11.07;67.96
33845;BME280;20145;43.118;25.694;2023-12-20T11:21:32;98960.75;;;11.16;68.25
33845;BME280;20145;43.118;25.694;2023-12-20T11:23:59;98958.13;;;11.20;67.36
33845;BME280;20145;43.118;25.694;2023-12-20T11:26:28;98957.91;;;11.29;67.39
33845;BME280;20145;43.118;25.694;2023-12-20T11:29:28;98952.59;;;11.35;67.20
33845;BME280;20145;43.118;25.694;2023-12-20T11:31:40;98945.75;;;11.34;67.09
33845;BME280;20145;43.118;25.694;2023-12-20T11:34:17;98933.59;;;11.37;66.26
33845;BME280;20145;43.118;25.694;2023-12-20T11:36:42;98941.06;;;11.50;66.79
33845;BME280;20145;43.118;25.694;2023-12-20T11:39:08;98920.69;;;11.37;67.61
33845;BME280;20145;43.118;25.694;2023-12-20T11:41:36;98923.88;;;11.49;66.19
33845;BME280;20145;43.118;25.694;2023-12-20T11:44:04;98916.97;;;11.49;67.24
33845;BME280;20145;43.118;25.694;2023-12-20T11:46:31;98923.03;;;11.48;65.72
33845;BME280;20145;43.118;25.694;2023-12-20T11:48:57;98925.63;;;11.47;66.64
33845;BME280;20145;43.118;25.694;2023-12-20T11:51:23;98930.00;;;11.45;66.89
33845;BME280;20145;43.118;25.694;2023-12-20T11:53:51;98927.44;;;11.43;67.38
33845;BME280;20145;43.118;25.694;2023-12-20T11:56:18;98899.19;;;11.37;66.76
33845;BME280;20145;43.118;25.694;2023-12-20T11:58:44;98905.72;;;11.52;66.93
33845;BME280;20145;43.118;25.694;2023-12-20T12:01:10;98893.91;;;11.42;65.84
33845;BME280;20145;43.118;25.694;2023-12-20T12:03:36;98870.97;;;11.28;66.58
33845;BME280;20145;43.118;25.694;2023-12-20T12:06:02;98865.72;;;11.32;67.13
33845;BME280;20145;43.118;25.694;2023-12-20T12:08:29;98897.63;;;11.66;67.30
33845;BME280;20145;43.118;25.694;2023-12-20T12:10:55;98866.69;;;11.63;66.46
33845;BME280;20145;43.118;25.694;2023-12-20T12:13:22;98866.69;;;11.64;67.12
33845;BME280;20145;43.118;25.694;2023-12-20T12:15:48;98874.22;;;11.72;66.69
33845;BME280;20145;43.118;25.694;2023-12-20T12:18:16;98828.31;;;11.47;65.96
33845;BME280;20145;43.118;25.694;2023-12-20T12:20:42;98860.38;;;11.74;66.21
33845;BME280;20145;43.118;25.694;2023-12-20T12:23:07;98849.25;;;11.72;66.11
33845;BME280;20145;43.118;25.694;2023-12-20T12:25:36;98871.97;;;11.94;66.46
33845;BME280;20145;43.118;25.694;2023-12-20T12:28:03;98866.78;;;11.94;65.63
33845;BME280;20145;43.118;25.694;2023-12-20T12:30:28;98865.00;;;11.97;65.80
33845;BME280;20145;43.118;25.694;2023-12-20T12:32:57;98860.47;;;12.05;65.07
33845;BME280;20145;43.118;25.694;2023-12-20T12:35:23;98868.81;;;12.15;64.32
33845;BME280;20145;43.118;25.694;2023-12-20T12:37:49;98839.53;;;12.13;64.39
33845;BME280;20145;43.118;25.694;2023-12-20T12:40:16;98846.00;;;12.30;63.26
33845;BME280;20145;43.118;25.694;2023-12-20T12:42:44;98848.47;;;12.34;65.07
33845;BME280;20145;43.118;25.694;2023-12-20T12:45:11;98827.69;;;12.36;63.62
33845;BME280;20145;43.118;25.694;2023-12-20T12:47:37;98825.09;;;12.67;64.52
33845;BME280;20145;43.118;25.694;2023-12-20T12:50:03;98827.88;;;13.15;63.00
33845;BME280;20145;43.118;25.694;2023-12-20T12:52:30;98834.19;;;13.35;61.87
33845;BME280;20145;43.118;25.694;2023-12-20T12:54:56;98833.50;;;13.30;61.81